Terminal Aerodrome Forecast
Issued by NWS New Orleans/Baton Rouge, LA

Home | Current Version | Previous Version | Text Only | Print | Product List | Glossary On
Versions: 1 2 3 4 5 6 7 8 9 10 11 12 13 14 15 16 17 18 19 20 21 22 23
000
FTUS44 KLIX 211744
TAFNEW
TAF
KNEW 211744Z 2118/2218 12011KT P6SM SCT030 SCT045
     FM212000 18009KT P6SM VCSH BKN040
      TEMPO 2121/2124 21025G35KT 2SM TSRA OVC025CB
     FM220300 21013G21KT P6SM BKN010 PROB30 2203/2205 4SM TSRA
      OVC003CB
     FM221500 25017G28KT P6SM SCT150 PROB30 2215/2218 4SM -SHRA
      BKN150 BKN250=

USA.gov is the U.S. government's official web portal to all federal, state and local government web resources and services.